Terminal Aerodrome Forecast
Issued by NWS Albany, NY

Home | Current Version | Previous Version | Text Only | Print | Product List | Glossary On
Versions: 1 2 3 4 5 6 7 8 9 10 11 12 13 14 15 16 17
000
FTUS41 KALY 301813 AAB
TAFGFL
TAF AMD
KGFL 301813Z 3018/3118 20008G15KT P6SM VCSH SCT025 BKN050
      TEMPO 3018/3019 1/2SM +SHRA FG BKN025 OVC040
     FM302100 23012G20KT P6SM SCT070
     FM310000 VRB03KT P6SM FEW050 WS020/27025KT
     FM310800 00000KT 2SM BR SCT015
     FM311200 23009G15KT P6SM SCT030 BKN060=

USA.gov is the U.S. government's official web portal to all federal, state and local government web resources and services.